createdAt,value
2017-02-04T00:00:20.142Z,1006.4
2017-02-04T00:01:22.587Z,1006.4
2017-02-04T00:02:25.028Z,1006.4
2017-02-04T00:03:27.472Z,1006.3
2017-02-04T00:04:30.280Z,1006.4
2017-02-04T00:05:33.057Z,1006.3
2017-02-04T00:06:35.330Z,1006.3
2017-02-04T00:07:37.774Z,1006.3
2017-02-04T00:08:40.723Z,1006.4
2017-02-04T00:09:43.170Z,1006.4
2017-02-04T00:10:45.949Z,1006.5
2017-02-04T00:11:48.390Z,1006.5
2017-02-04T00:12:50.835Z,1006.5
2017-02-04T00:13:53.780Z,1006.5
2017-02-04T00:14:56.230Z,1006.5
2017-02-04T00:15:58.674Z,1006.5
2017-02-04T00:17:01.453Z,1006.5
2017-02-04T00:18:03.895Z,1006.5
2017-02-04T00:19:06.340Z,1006.4
2017-02-04T00:20:08.806Z,1006.4
2017-02-04T00:21:11.761Z,1006.4
2017-02-04T00:22:14.209Z,1006.3
2017-02-04T00:23:16.653Z,1006.2
2017-02-04T00:24:19.602Z,1006.1
2017-02-04T00:25:22.071Z,1006
2017-02-04T00:26:24.517Z,1006
2017-02-04T00:27:26.958Z,1006.1
2017-02-04T00:28:29.911Z,1006.1
2017-02-04T00:29:32.354Z,1006.1
2017-02-04T00:30:34.628Z,1006
2017-02-04T00:31:37.405Z,1005.9
2017-02-04T00:32:39.850Z,1005.9
2017-02-04T00:33:42.802Z,1005.9
2017-02-04T00:34:45.243Z,1005.9
2017-02-04T00:35:47.681Z,1005.8
2017-02-04T00:36:50.121Z,1005.8
2017-02-04T00:37:53.092Z,1005.9
2017-02-04T00:39:57.974Z,1006
2017-02-04T00:41:00.427Z,1006
2017-02-04T00:42:03.380Z,1006
2017-02-04T00:43:05.661Z,1006
2017-02-04T00:44:08.130Z,1006
2017-02-04T00:45:10.740Z,1006
2017-02-04T00:46:13.687Z,1006.1
2017-02-04T00:48:18.539Z,1006.1
2017-02-04T00:49:21.514Z,1006.1
2017-02-04T00:50:23.961Z,1006.1
2017-02-04T00:51:26.442Z,1006
2017-02-04T00:52:29.226Z,1006
2017-02-04T00:53:31.669Z,1006
2017-02-04T00:54:34.110Z,1006
2017-02-04T00:55:36.556Z,1006
2017-02-04T00:56:39.505Z,1006
2017-02-04T00:57:41.953Z,1005.9
2017-02-04T00:58:44.395Z,1005.9
2017-02-04T00:59:46.840Z,1006
2017-02-04T01:00:49.784Z,1006
2017-02-04T01:01:52.225Z,1006
2017-02-04T01:02:54.665Z,1006
2017-02-04T01:03:57.109Z,1006
2017-02-04T01:05:00.058Z,1006
2017-02-04T01:06:02.501Z,1006
2017-02-04T01:07:04.940Z,1006
2017-02-04T01:08:07.381Z,1006
2017-02-04T01:09:10.185Z,1006
2017-02-04T01:10:12.629Z,1006
2017-02-04T01:11:15.571Z,1006
2017-02-04T01:12:18.016Z,1006
2017-02-04T01:13:20.462Z,1005.9
2017-02-04T01:14:23.247Z,1005.9
2017-02-04T01:15:25.538Z,1005.9
2017-02-04T01:16:28.024Z,1005.9
2017-02-04T01:17:30.968Z,1005.9
2017-02-04T01:18:33.249Z,1005.9
2017-02-04T01:19:35.690Z,1005.9
2017-02-04T01:21:41.044Z,1005.9
2017-02-04T01:22:43.486Z,1005.9
2017-02-04T01:23:46.430Z,1005.9
2017-02-04T01:24:48.871Z,1005.9
2017-02-04T01:25:51.320Z,1005.9
2017-02-04T01:26:53.762Z,1005.9
2017-02-04T01:27:56.712Z,1005.9
2017-02-04T01:28:59.183Z,1005.9
2017-02-04T01:30:01.637Z,1005.9
2017-02-04T01:31:04.081Z,1005.9
2017-02-04T01:32:06.527Z,1005.9
2017-02-04T01:33:09.135Z,1005.9
2017-02-04T01:34:12.079Z,1005.8
2017-02-04T01:35:14.517Z,1005.9
2017-02-04T01:36:16.959Z,1005.9
2017-02-04T01:37:19.403Z,1005.9
2017-02-04T01:38:22.347Z,1005.9
2017-02-04T01:39:24.785Z,1005.9
2017-02-04T01:40:27.230Z,1005.8
2017-02-04T01:41:30.006Z,1005.9
2017-02-04T01:42:32.447Z,1005.9
2017-02-04T01:44:37.797Z,1005.9
2017-02-04T01:45:40.244Z,1005.9
2017-02-04T01:46:42.684Z,1005.9
2017-02-04T01:47:45.132Z,1005.9
2017-02-04T01:48:48.081Z,1005.9
2017-02-04T01:49:50.525Z,1005.9
2017-02-04T01:50:52.969Z,1005.9
2017-02-04T01:51:55.411Z,1005.9
2017-02-04T01:52:58.360Z,1005.8
2017-02-04T01:54:00.805Z,1005.9
2017-02-04T01:55:03.243Z,1005.8
2017-02-04T01:57:08.597Z,1005.8
2017-02-04T01:58:11.037Z,1005.7
2017-02-04T01:59:13.479Z,1005.7
2017-02-04T02:00:15.921Z,1005.7
2017-02-04T02:01:18.865Z,1005.7
2017-02-04T02:03:23.712Z,1005.7
2017-02-04T02:04:26.177Z,1005.7
2017-02-04T02:05:29.121Z,1005.7
2017-02-04T02:06:31.563Z,1005.7
2017-02-04T02:07:34.041Z,1005.7
2017-02-04T02:08:36.481Z,1005.7
2017-02-04T02:09:39.259Z,1005.6
2017-02-04T02:10:41.532Z,1005.6
2017-02-04T02:11:44.313Z,1005.6
2017-02-04T02:12:46.762Z,1005.5
2017-02-04T02:13:49.231Z,1005.6
2017-02-04T02:14:52.179Z,1005.6
2017-02-04T02:15:54.625Z,1005.5
2017-02-04T02:16:57.067Z,1005.5
2017-02-04T02:17:59.508Z,1005.6
2017-02-04T02:19:02.453Z,1005.5
2017-02-04T02:20:04.898Z,1005.5
2017-02-04T02:21:07.339Z,1005.5
2017-02-04T02:23:12.355Z,1005.4
2017-02-04T02:24:15.300Z,1005.5
2017-02-04T02:25:17.745Z,1005.5
2017-02-04T02:26:20.215Z,1005.5
2017-02-04T02:27:22.660Z,1005.6
2017-02-04T02:28:25.102Z,1005.6
2017-02-04T02:29:28.050Z,1005.5
2017-02-04T02:30:30.495Z,1005.5
2017-02-04T02:31:32.935Z,1005.5
2017-02-04T02:32:35.742Z,1005.5
2017-02-04T02:33:38.191Z,1005.5
2017-02-04T02:34:40.496Z,1005.5
2017-02-04T02:35:43.443Z,1005.5
2017-02-04T02:36:45.884Z,1005.4
2017-02-04T02:37:48.330Z,1005.4
2017-02-04T02:38:50.766Z,1005.3
2017-02-04T02:39:53.711Z,1005.3
2017-02-04T02:40:56.153Z,1005.3
2017-02-04T02:41:58.598Z,1005.3
2017-02-04T02:43:01.045Z,1005.3
2017-02-04T02:44:04.036Z,1005.4
2017-02-04T02:45:06.485Z,1005.4
2017-02-04T02:46:08.926Z,1005.4
2017-02-04T02:47:11.706Z,1005.4
2017-02-04T02:48:14.148Z,1005.4
2017-02-04T02:49:16.593Z,1005.4
2017-02-04T02:50:19.373Z,1005.4
2017-02-04T02:51:21.693Z,1005.4
2017-02-04T02:52:24.142Z,1005.4
2017-02-04T02:53:27.085Z,1005.5
2017-02-04T02:55:31.962Z,1005.5
2017-02-04T02:56:34.402Z,1005.5
2017-02-04T02:58:39.773Z,1005.6
2017-02-04T02:59:42.213Z,1005.5
2017-02-04T03:01:47.397Z,1005.4
2017-02-04T03:02:49.835Z,1005.4
2017-02-04T03:03:52.277Z,1005.4
2017-02-04T03:04:55.221Z,1005.4
2017-02-04T03:05:57.664Z,1005.5
2017-02-04T03:07:00.103Z,1005.4
2017-02-04T03:08:02.548Z,1005.4
2017-02-04T03:09:05.501Z,1005.4
2017-02-04T03:10:07.942Z,1005.4
2017-02-04T03:11:10.383Z,1005.5
2017-02-04T03:12:12.822Z,1005.5
2017-02-04T03:13:15.774Z,1005.6
2017-02-04T03:14:18.219Z,1005.6
2017-02-04T03:15:20.666Z,1005.6
2017-02-04T03:16:23.110Z,1005.6
2017-02-04T03:17:26.058Z,1005.6
2017-02-04T03:18:28.331Z,1005.6
2017-02-04T03:19:30.773Z,1005.6
2017-02-04T03:20:33.741Z,1005.6
2017-02-04T03:21:36.181Z,1005.6
2017-02-04T03:22:38.643Z,1005.6
2017-02-04T03:23:41.091Z,1005.6
2017-02-04T03:24:43.871Z,1005.7
2017-02-04T03:25:46.310Z,1005.6
2017-02-04T03:27:51.659Z,1005.7
2017-02-04T03:28:54.104Z,1005.8
2017-02-04T03:29:56.549Z,1005.9
2017-02-04T03:30:58.979Z,1005.8
2017-02-04T03:32:01.925Z,1005.8
2017-02-04T03:33:04.377Z,1005.8
2017-02-04T03:34:06.824Z,1005.9
2017-02-04T03:35:09.275Z,1005.9
2017-02-04T03:36:12.223Z,1006
2017-02-04T03:37:14.662Z,1006
2017-02-04T03:38:17.132Z,1006
2017-02-04T03:39:19.587Z,1006
2017-02-04T03:40:22.025Z,1006
2017-02-04T03:41:24.969Z,1006
2017-02-04T03:42:27.412Z,1006.1
2017-02-04T03:43:29.852Z,1006
2017-02-04T03:44:32.293Z,1006
2017-02-04T03:45:35.243Z,1006
2017-02-04T03:46:37.687Z,1006
2017-02-04T03:47:40.150Z,1006
2017-02-04T03:48:42.598Z,1006
2017-02-04T03:49:45.373Z,1006
2017-02-04T03:50:47.816Z,1006
2017-02-04T03:51:50.704Z,1006.1
2017-02-04T03:52:53.156Z,1006
2017-02-04T03:54:58.007Z,1006
2017-02-04T03:56:00.454Z,1006
2017-02-04T03:57:03.402Z,1006.1
2017-02-04T03:58:05.852Z,1006.1
2017-02-04T03:59:08.296Z,1006.1
2017-02-04T04:00:10.742Z,1006.1
2017-02-04T04:01:13.210Z,1006.1
2017-02-04T04:02:16.165Z,1006.1
2017-02-04T04:03:18.618Z,1006.1
2017-02-04T04:04:21.066Z,1006.1
2017-02-04T04:05:23.513Z,1006.1
2017-02-04T04:06:26.467Z,1006.1
2017-02-04T04:07:28.914Z,1006.1
2017-02-04T04:09:33.765Z,1006.1
2017-02-04T04:10:36.713Z,1006.1
2017-02-04T04:11:39.158Z,1006.1
2017-02-04T04:12:41.627Z,1006.1
2017-02-04T04:13:44.073Z,1006.1
2017-02-04T04:14:46.525Z,1006.1
2017-02-04T04:16:51.879Z,1006.1
2017-02-04T04:17:54.326Z,1006.2
2017-02-04T04:18:56.802Z,1006.2
2017-02-04T04:19:59.753Z,1006.1
2017-02-04T04:21:02.208Z,1006.1
2017-02-04T04:22:04.658Z,1006.1
2017-02-04T04:23:07.104Z,1006.1
2017-02-04T04:24:09.553Z,1006.1
2017-02-04T04:25:12.505Z,1006.2
2017-02-04T04:26:14.955Z,1006.1
2017-02-04T04:27:17.238Z,1006.2
2017-02-04T04:28:20.192Z,1006.1
2017-02-04T04:29:22.640Z,1006.1
2017-02-04T04:30:25.085Z,1006.1
2017-02-04T04:31:27.531Z,1006
2017-02-04T04:32:30.480Z,1006.1
2017-02-04T04:33:32.926Z,1006
2017-02-04T04:34:35.373Z,1006
2017-02-04T04:35:37.821Z,1006
2017-02-04T04:36:40.659Z,1005.9
2017-02-04T04:37:43.107Z,1005.9
2017-02-04T04:38:45.385Z,1005.9
2017-02-04T04:39:48.361Z,1005.8
2017-02-04T04:40:50.810Z,1005.8
2017-02-04T04:41:53.255Z,1005.8
2017-02-04T04:42:55.705Z,1005.8
2017-02-04T04:43:58.662Z,1005.9
2017-02-04T04:45:01.111Z,1005.9
2017-02-04T04:46:03.561Z,1005.9
2017-02-04T04:47:05.840Z,1005.8
2017-02-04T04:49:11.197Z,1005.9
2017-02-04T04:50:13.981Z,1005.9
2017-02-04T04:51:16.431Z,1005.9
2017-02-04T04:52:18.877Z,1006
2017-02-04T04:53:21.326Z,1006.1
2017-02-04T04:54:23.770Z,1006
2017-02-04T04:55:26.719Z,1006.1
2017-02-04T04:56:29.165Z,1006.1
2017-02-04T04:57:31.610Z,1006
2017-02-04T04:58:34.056Z,1006
2017-02-04T04:59:37.002Z,1006
2017-02-04T05:00:39.450Z,1006.1
2017-02-04T05:02:44.304Z,1006
2017-02-04T05:03:47.253Z,1006
2017-02-04T05:04:49.702Z,1006
2017-02-04T05:05:52.155Z,1006
2017-02-04T05:06:54.605Z,1005.9
2017-02-04T05:07:57.050Z,1005.9
2017-02-04T05:09:00.001Z,1005.9
2017-02-04T05:10:02.446Z,1005.9
2017-02-04T05:11:04.724Z,1005.9
2017-02-04T05:12:07.671Z,1005.9
2017-02-04T05:13:09.782Z,1005.9
2017-02-04T05:14:12.736Z,1005.9
2017-02-04T05:15:15.184Z,1005.9
2017-02-04T05:16:17.634Z,1005.9
2017-02-04T05:17:20.111Z,1005.9
2017-02-04T05:18:22.565Z,1005.9
2017-02-04T05:19:25.517Z,1005.8
2017-02-04T05:20:27.961Z,1005.8
2017-02-04T05:21:30.404Z,1005.9
2017-02-04T05:22:32.853Z,1005.9
2017-02-04T05:24:38.210Z,1005.9
2017-02-04T05:25:40.659Z,1005.9
2017-02-04T05:26:43.105Z,1005.9
2017-02-04T05:27:45.550Z,1005.8
2017-02-04T05:28:48.497Z,1005.8
2017-02-04T05:29:50.771Z,1005.8
2017-02-04T05:30:53.216Z,1005.8
2017-02-04T05:31:55.996Z,1005.9
2017-02-04T05:32:58.437Z,1005.8
2017-02-04T05:34:01.245Z,1005.8
2017-02-04T05:35:03.697Z,1005.8
2017-02-04T05:36:06.173Z,1005.8
2017-02-04T05:37:08.621Z,1005.7
2017-02-04T05:38:11.576Z,1005.7
2017-02-04T05:39:14.023Z,1005.7
2017-02-04T05:40:16.475Z,1005.7
2017-02-04T05:41:18.917Z,1005.7
2017-02-04T05:42:21.371Z,1005.7
2017-02-04T05:43:24.330Z,1005.7
2017-02-04T05:44:26.777Z,1005.7
2017-02-04T05:45:29.222Z,1005.7
2017-02-04T05:46:31.670Z,1005.7
2017-02-04T05:47:34.117Z,1005.7
2017-02-04T05:48:37.069Z,1005.7
2017-02-04T05:49:39.518Z,1005.8
2017-02-04T05:50:42.000Z,1005.8
2017-02-04T05:51:44.448Z,1005.7
2017-02-04T05:52:46.897Z,1005.8
2017-02-04T05:53:49.847Z,1005.8
2017-02-04T05:54:52.303Z,1005.8
2017-02-04T05:55:54.749Z,1005.8
2017-02-04T05:56:57.220Z,1005.7
2017-02-04T05:57:59.672Z,1005.7
2017-02-04T05:59:02.623Z,1005.6
2017-02-04T06:00:05.069Z,1005.6
2017-02-04T06:01:07.512Z,1005.7
2017-02-04T06:02:10.306Z,1005.7
2017-02-04T06:03:12.752Z,1005.7
2017-02-04T06:04:15.209Z,1005.6
2017-02-04T06:05:17.518Z,1005.6
2017-02-04T06:06:20.465Z,1005.6
2017-02-04T06:07:22.916Z,1005.6
2017-02-04T06:08:25.199Z,1005.6
2017-02-04T06:09:27.979Z,1005.7
2017-02-04T06:10:30.427Z,1005.7
2017-02-04T06:11:32.883Z,1005.7
2017-02-04T06:12:35.834Z,1005.7
2017-02-04T06:13:38.284Z,1005.7
2017-02-04T06:14:40.763Z,1005.7
2017-02-04T06:15:43.538Z,1005.7
2017-02-04T06:16:45.985Z,1005.8
2017-02-04T06:17:48.431Z,1005.7
2017-02-04T06:18:50.879Z,1005.8
2017-02-04T06:19:53.324Z,1005.8
2017-02-04T06:20:56.274Z,1005.8
2017-02-04T06:21:58.718Z,1005.7
2017-02-04T06:23:01.164Z,1005.8
2017-02-04T06:24:03.947Z,1005.8
2017-02-04T06:25:06.395Z,1005.8
2017-02-04T06:26:08.840Z,1005.8
2017-02-04T06:28:14.030Z,1005.8
2017-02-04T06:29:16.475Z,1005.8
2017-02-04T06:30:18.920Z,1005.7
2017-02-04T06:31:21.869Z,1005.7
2017-02-04T06:32:24.314Z,1005.7
2017-02-04T06:33:26.783Z,1005.7
2017-02-04T06:34:29.237Z,1005.7
2017-02-04T06:35:31.684Z,1005.6
2017-02-04T06:36:34.631Z,1005.7
2017-02-04T06:37:37.076Z,1005.7
2017-02-04T06:38:39.520Z,1005.7
2017-02-04T06:39:41.967Z,1005.8
2017-02-04T06:40:44.779Z,1005.7
2017-02-04T06:41:47.227Z,1005.7
2017-02-04T06:42:49.673Z,1005.7
2017-02-04T06:43:52.117Z,1005.7
2017-02-04T06:44:54.898Z,1005.7
2017-02-04T06:45:57.176Z,1005.7
2017-02-04T06:47:00.126Z,1005.7
2017-02-04T06:48:02.575Z,1005.7
2017-02-04T06:49:05.020Z,1005.7
2017-02-04T06:50:07.465Z,1005.7
2017-02-04T06:51:09.917Z,1005.8
2017-02-04T06:52:12.863Z,1005.8
2017-02-04T06:53:15.311Z,1005.8
2017-02-04T06:54:17.758Z,1005.8
2017-02-04T06:55:20.211Z,1005.8
2017-02-04T06:56:22.695Z,1005.8
2017-02-04T06:57:25.545Z,1005.9
2017-02-04T06:58:27.997Z,1005.9
2017-02-04T07:01:35.776Z,1005.8
2017-02-04T07:02:38.221Z,1005.8
2017-02-04T07:03:40.671Z,1005.9
2017-02-04T07:04:43.119Z,1005.8
2017-02-04T07:05:46.091Z,1005.9
2017-02-04T07:06:48.540Z,1005.9
2017-02-04T07:07:50.988Z,1005.8
2017-02-04T07:09:55.845Z,1005.8
2017-02-04T07:10:58.797Z,1005.9
2017-02-04T07:13:03.647Z,1005.9
2017-02-04T07:14:06.101Z,1005.9
2017-02-04T07:15:09.058Z,1005.9
2017-02-04T07:16:11.510Z,1006
2017-02-04T07:17:14.105Z,1006
2017-02-04T07:18:16.385Z,1006
2017-02-04T07:19:18.835Z,1006
2017-02-04T07:20:21.783Z,1006
2017-02-04T07:21:24.232Z,1006
2017-02-04T07:22:26.678Z,1006
2017-02-04T07:23:29.523Z,1006
2017-02-04T07:24:31.806Z,1006
2017-02-04T07:25:34.250Z,1006
2017-02-04T07:26:36.696Z,1006
2017-02-04T07:27:39.645Z,1006.1
2017-02-04T07:28:42.095Z,1006.1
2017-02-04T07:29:44.539Z,1006.1
2017-02-04T07:30:46.985Z,1006.1
2017-02-04T07:31:49.933Z,1006
2017-02-04T07:32:52.386Z,1006
2017-02-04T07:33:54.833Z,1006
2017-02-04T07:34:57.280Z,1006
2017-02-04T07:35:59.731Z,1006
2017-02-04T07:37:02.683Z,1006
2017-02-04T07:38:05.132Z,1006
2017-02-04T07:39:07.586Z,1006
2017-02-04T07:41:12.772Z,1006
2017-02-04T07:42:15.216Z,1006
2017-02-04T07:43:17.664Z,1005.9
2017-02-04T07:44:20.623Z,1006
2017-02-04T07:45:23.069Z,1006
2017-02-04T07:46:25.514Z,1005.9
2017-02-04T07:47:27.959Z,1005.9
2017-02-04T07:48:30.409Z,1005.9
2017-02-04T07:49:33.357Z,1005.9
2017-02-04T07:50:35.803Z,1005.9
2017-02-04T07:51:38.251Z,1006
2017-02-04T07:52:40.705Z,1006
2017-02-04T07:53:43.155Z,1006
2017-02-04T07:54:46.105Z,1006
2017-02-04T07:55:48.390Z,1006.1
2017-02-04T07:56:50.834Z,1006
2017-02-04T07:57:53.787Z,1006
2017-02-04T07:58:56.237Z,1006
2017-02-04T07:59:58.689Z,1006
2017-02-04T08:01:01.474Z,1006
2017-02-04T08:02:03.919Z,1006
2017-02-04T08:03:06.364Z,1006
2017-02-04T08:04:08.808Z,1005.9
2017-02-04T08:05:11.424Z,1005.9
2017-02-04T08:06:13.896Z,1005.9
2017-02-04T08:07:16.886Z,1005.9
2017-02-04T08:08:19.165Z,1005.9
2017-02-04T08:09:21.614Z,1005.9
2017-02-04T08:10:24.562Z,1005.8
2017-02-04T08:11:27.007Z,1005.8
2017-02-04T08:12:29.289Z,1005.8
2017-02-04T08:13:31.769Z,1005.8
2017-02-04T08:14:34.549Z,1005.8
2017-02-04T08:15:36.998Z,1005.8
2017-02-04T08:16:39.945Z,1005.8
2017-02-04T08:17:42.223Z,1005.8
2017-02-04T08:18:44.672Z,1005.8
2017-02-04T08:19:47.621Z,1005.7
2017-02-04T08:20:50.070Z,1005.7
2017-02-04T08:21:52.519Z,1005.7
2017-02-04T08:23:57.900Z,1005.7
2017-02-04T08:25:00.345Z,1005.7
2017-02-04T08:26:02.627Z,1005.7
2017-02-04T08:27:05.580Z,1005.7
2017-02-04T08:28:08.056Z,1005.7
2017-02-04T08:29:10.336Z,1005.7
2017-02-04T08:30:13.286Z,1005.6
2017-02-04T08:31:15.735Z,1005.7
2017-02-04T08:32:18.205Z,1005.6
2017-02-04T08:33:20.658Z,1005.6
2017-02-04T08:34:23.607Z,1005.7
2017-02-04T08:35:26.055Z,1005.7
2017-02-04T08:36:28.501Z,1005.7
2017-02-04T08:37:30.951Z,1005.7
2017-02-04T08:38:33.908Z,1005.6
2017-02-04T08:39:36.352Z,1005.6
2017-02-04T08:40:38.797Z,1005.7
2017-02-04T08:41:41.243Z,1005.6
2017-02-04T08:42:44.198Z,1005.6
2017-02-04T08:43:46.652Z,1005.6
2017-02-04T08:44:49.096Z,1005.6
2017-02-04T08:45:51.546Z,1005.6
2017-02-04T08:46:54.498Z,1005.6
2017-02-04T08:47:56.947Z,1005.6
2017-02-04T08:48:59.397Z,1005.6
2017-02-04T08:50:02.352Z,1005.6
2017-02-04T08:51:04.642Z,1005.7
2017-02-04T08:52:07.086Z,1005.7
2017-02-04T08:53:09.702Z,1005.7
2017-02-04T08:55:15.098Z,1005.7
2017-02-04T08:56:17.543Z,1005.7
2017-02-04T08:57:20.331Z,1005.7
2017-02-04T08:58:22.651Z,1005.7
2017-02-04T08:59:25.102Z,1005.7
2017-02-04T09:00:28.058Z,1005.7
2017-02-04T09:01:30.508Z,1005.7
2017-02-04T09:02:32.976Z,1005.7
2017-02-04T09:03:35.760Z,1005.7
2017-02-04T09:04:38.214Z,1005.7
2017-02-04T09:05:40.678Z,1005.7
2017-02-04T09:06:43.136Z,1005.7
2017-02-04T09:07:45.924Z,1005.7
2017-02-04T09:08:48.317Z,1005.7
2017-02-04T09:09:51.269Z,1005.7
2017-02-04T09:10:53.545Z,1005.7
2017-02-04T09:11:55.991Z,1005.6
2017-02-04T09:12:58.943Z,1005.6
2017-02-04T09:14:01.393Z,1005.7
2017-02-04T09:15:03.846Z,1005.6
2017-02-04T09:16:06.295Z,1005.6
2017-02-04T09:17:09.099Z,1005.6
2017-02-04T09:18:11.891Z,1005.6
2017-02-04T09:19:14.340Z,1005.6
2017-02-04T09:20:16.788Z,1005.6
2017-02-04T09:21:19.263Z,1005.6
2017-02-04T09:22:22.221Z,1005.6
2017-02-04T09:23:24.498Z,1005.6
2017-02-04T09:24:26.945Z,1005.7
2017-02-04T09:25:29.901Z,1005.6
2017-02-04T09:26:32.351Z,1005.6
2017-02-04T09:27:34.801Z,1005.6
2017-02-04T09:28:37.253Z,1005.7
2017-02-04T09:29:40.201Z,1005.6
2017-02-04T09:30:42.671Z,1005.6
2017-02-04T09:31:45.140Z,1005.6
2017-02-04T09:32:47.586Z,1005.5
2017-02-04T09:33:50.542Z,1005.5
2017-02-04T09:34:52.989Z,1005.6
2017-02-04T09:35:55.438Z,1005.6
2017-02-04T09:36:57.887Z,1005.6
2017-02-04T09:38:00.845Z,1005.6
2017-02-04T09:39:03.308Z,1005.6
2017-02-04T09:40:05.758Z,1005.5
2017-02-04T09:42:10.784Z,1005.5
2017-02-04T09:43:13.573Z,1005.6
2017-02-04T09:44:16.024Z,1005.6
2017-02-04T09:45:18.472Z,1005.5
2017-02-04T09:46:21.424Z,1005.4
2017-02-04T09:47:23.701Z,1005.4
2017-02-04T09:48:26.525Z,1005.4
2017-02-04T09:49:28.995Z,1005.4
2017-02-04T09:50:31.444Z,1005.4
2017-02-04T09:51:33.897Z,1005.4
2017-02-04T09:52:36.850Z,1005.5
2017-02-04T09:54:41.728Z,1005.5
2017-02-04T09:55:44.675Z,1005.5
2017-02-04T09:56:47.124Z,1005.5
2017-02-04T09:57:49.575Z,1005.4
2017-02-04T09:58:52.022Z,1005.5
2017-02-04T09:59:54.981Z,1005.5
2017-02-04T10:00:57.429Z,1005.5
2017-02-04T10:01:59.715Z,1005.5
2017-02-04T10:03:02.666Z,1005.5
2017-02-04T10:04:05.111Z,1005.6
2017-02-04T10:05:07.561Z,1005.6
2017-02-04T10:06:10.344Z,1005.6
2017-02-04T10:07:12.793Z,1005.6
2017-02-04T10:08:15.238Z,1005.6
2017-02-04T10:09:18.028Z,1005.5
2017-02-04T10:11:23.385Z,1005.5
2017-02-04T10:12:25.839Z,1005.4
2017-02-04T10:13:28.330Z,1005.4
2017-02-04T10:14:30.779Z,1005.4
2017-02-04T10:15:33.727Z,1005.4
2017-02-04T10:16:36.177Z,1005.4
2017-02-04T10:17:38.629Z,1005.4
2017-02-04T10:18:41.099Z,1005.4
2017-02-04T10:19:44.051Z,1005.4
2017-02-04T10:20:46.500Z,1005.4
2017-02-04T10:21:48.957Z,1005.4
2017-02-04T10:22:51.403Z,1005.3
2017-02-04T10:23:54.185Z,1005.4
2017-02-04T10:24:56.805Z,1005.4
2017-02-04T10:25:59.254Z,1005.4
2017-02-04T10:27:01.703Z,1005.4
2017-02-04T10:28:04.657Z,1005.4
2017-02-04T10:29:06.977Z,1005.4
2017-02-04T10:30:09.765Z,1005.4
2017-02-04T10:31:12.208Z,1005.4
2017-02-04T10:32:14.654Z,1005.3
2017-02-04T10:33:17.107Z,1005.3
2017-02-04T10:34:20.061Z,1005.3
2017-02-04T10:35:22.509Z,1005.3
2017-02-04T10:36:24.979Z,1005.3
2017-02-04T10:37:27.931Z,1005.3
2017-02-04T10:38:30.378Z,1005.3
2017-02-04T10:39:32.858Z,1005.3
2017-02-04T10:40:35.319Z,1005.2
2017-02-04T10:41:37.769Z,1005.2
2017-02-04T10:42:40.550Z,1005.2
2017-02-04T10:43:43.001Z,1005.2
2017-02-04T10:44:45.964Z,1005.2
2017-02-04T10:45:48.412Z,1005.2
2017-02-04T10:46:50.863Z,1005.1
2017-02-04T10:47:53.649Z,1005.2
2017-02-04T10:48:56.097Z,1005.2
2017-02-04T10:49:58.547Z,1005.2
2017-02-04T10:51:01.497Z,1005.2
2017-02-04T10:52:03.946Z,1005.1
2017-02-04T10:53:06.399Z,1005.1
2017-02-04T10:54:08.873Z,1005.1
2017-02-04T10:57:16.639Z,1005.1
2017-02-04T10:58:19.588Z,1005.1
2017-02-04T10:59:22.034Z,1005.1
2017-02-04T11:00:24.482Z,1005.1
2017-02-04T11:02:29.671Z,1005.1
2017-02-04T11:03:32.140Z,1005.1
2017-02-04T11:04:35.093Z,1005.1
2017-02-04T11:05:37.538Z,1005.1
2017-02-04T11:06:40.024Z,1005.1
2017-02-04T11:07:42.469Z,1005
2017-02-04T11:08:45.423Z,1005
2017-02-04T11:09:47.874Z,1004.9
2017-02-04T11:10:50.321Z,1004.9
2017-02-04T11:11:52.779Z,1004.8
2017-02-04T11:12:55.730Z,1004.8
2017-02-04T11:13:58.179Z,1004.8
2017-02-04T11:16:03.537Z,1004.8
2017-02-04T11:17:05.987Z,1004.8
2017-02-04T11:18:08.438Z,1004.7
2017-02-04T11:19:10.886Z,1004.7
2017-02-04T11:20:13.863Z,1004.7
2017-02-04T11:21:16.311Z,1004.8
2017-02-04T11:22:18.593Z,1004.7
2017-02-04T11:23:21.546Z,1004.7
2017-02-04T11:24:23.826Z,1004.7
2017-02-04T11:25:26.778Z,1004.6
2017-02-04T11:26:29.226Z,1004.6
2017-02-04T11:27:31.673Z,1004.6
2017-02-04T11:28:34.121Z,1004.5
2017-02-04T11:29:37.079Z,1004.5
2017-02-04T11:30:39.523Z,1004.5
2017-02-04T11:31:41.973Z,1004.5
2017-02-04T11:32:44.921Z,1004.4
2017-02-04T11:33:47.367Z,1004.4
2017-02-04T11:34:49.815Z,1004.4
2017-02-04T11:35:52.261Z,1004.4
2017-02-04T11:36:55.230Z,1004.4
2017-02-04T11:37:57.679Z,1004.4
2017-02-04T11:39:00.132Z,1004.4
2017-02-04T11:40:02.920Z,1004.4
2017-02-04T11:41:05.369Z,1004.4
2017-02-04T11:42:07.819Z,1004.4
2017-02-04T11:43:10.773Z,1004.4
2017-02-04T11:44:13.220Z,1004.3
2017-02-04T11:45:15.667Z,1004.3
2017-02-04T11:46:18.618Z,1004.3
2017-02-04T11:47:21.068Z,1004.3
2017-02-04T11:48:23.517Z,1004.3
2017-02-04T11:49:25.967Z,1004.3
2017-02-04T11:50:28.751Z,1004.3
2017-02-04T11:51:31.199Z,1004.3
2017-02-04T11:52:34.153Z,1004.3
2017-02-04T11:53:36.600Z,1004.3
2017-02-04T11:54:39.047Z,1004.3
2017-02-04T11:55:41.497Z,1004.3
2017-02-04T11:56:44.469Z,1004.3
2017-02-04T11:57:46.919Z,1004.3
2017-02-04T11:58:49.368Z,1004.3
2017-02-04T11:59:52.149Z,1004.2
2017-02-04T12:00:54.593Z,1004.2
2017-02-04T12:01:57.044Z,1004.2
2017-02-04T12:02:59.998Z,1004.2
2017-02-04T12:04:02.453Z,1004.2
2017-02-04T12:05:04.901Z,1004.2
2017-02-04T12:06:07.347Z,1004.1
2017-02-04T12:07:10.140Z,1004.1
2017-02-04T12:08:12.589Z,1004.1
2017-02-04T12:10:17.946Z,1004.1
2017-02-04T12:11:20.396Z,1004.1
2017-02-04T12:12:23.343Z,1004.1
2017-02-04T12:13:25.790Z,1004.1
2017-02-04T12:14:28.239Z,1004.1
2017-02-04T12:15:30.688Z,1004
2017-02-04T12:16:33.641Z,1004
2017-02-04T12:17:35.926Z,1004
2017-02-04T12:18:38.881Z,1004
2017-02-04T12:19:41.332Z,1004
2017-02-04T12:20:43.783Z,1004
2017-02-04T12:21:46.226Z,1004
2017-02-04T12:22:49.179Z,1004
2017-02-04T12:23:51.627Z,1004
2017-02-04T12:24:54.074Z,1003.8
2017-02-04T12:25:57.026Z,1003.8
2017-02-04T12:26:59.481Z,1003.8
2017-02-04T12:28:01.936Z,1003.7
2017-02-04T12:29:04.386Z,1003.7
2017-02-04T12:30:07.339Z,1003.7
2017-02-04T12:31:09.655Z,1003.6
2017-02-04T12:32:12.604Z,1003.6
2017-02-04T12:33:15.050Z,1003.6
2017-02-04T12:34:17.499Z,1003.6
2017-02-04T12:35:20.291Z,1003.5
2017-02-04T12:36:22.739Z,1003.6
2017-02-04T12:37:25.186Z,1003.5
2017-02-04T12:38:28.136Z,1003.5
2017-02-04T12:39:30.583Z,1003.5
2017-02-04T12:40:33.030Z,1003.5
2017-02-04T12:41:35.475Z,1003.5
2017-02-04T12:42:38.427Z,1003.5
2017-02-04T12:43:40.713Z,1003.5
2017-02-04T12:44:43.664Z,1003.5
2017-02-04T12:45:46.114Z,1003.5
2017-02-04T12:46:48.595Z,1003.4
2017-02-04T12:47:51.045Z,1003.4
2017-02-04T12:48:53.876Z,1003.5
2017-02-04T12:49:56.321Z,1003.4
2017-02-04T12:52:01.679Z,1003.4
2017-02-04T12:53:04.128Z,1003.4
2017-02-04T12:54:06.577Z,1003.4
2017-02-04T12:55:09.526Z,1003.4
2017-02-04T12:56:11.976Z,1003.4
2017-02-04T12:57:14.460Z,1003.3
2017-02-04T12:58:17.409Z,1003.4
2017-02-04T12:59:19.854Z,1003.4
2017-02-04T13:00:22.304Z,1003.3
2017-02-04T13:01:24.749Z,1003.4
2017-02-04T13:02:27.709Z,1003.3
2017-02-04T13:03:30.199Z,1003.3
2017-02-04T13:04:32.982Z,1003.3
2017-02-04T13:05:35.432Z,1003.3
2017-02-04T13:06:37.886Z,1003.3
2017-02-04T13:07:40.331Z,1003.3
2017-02-04T13:08:43.284Z,1003.2
2017-02-04T13:09:45.742Z,1003.2
2017-02-04T13:10:48.190Z,1003.2
2017-02-04T13:12:53.547Z,1003.1
2017-02-04T13:13:56.334Z,1003.2
2017-02-04T13:14:58.779Z,1003.1
2017-02-04T13:16:01.229Z,1003.2
2017-02-04T13:17:03.683Z,1003.1
2017-02-04T13:18:06.638Z,1003.1
2017-02-04T13:19:09.085Z,1003.1
2017-02-04T13:20:11.533Z,1003.1
2017-02-04T13:21:14.487Z,1003.1
2017-02-04T13:22:16.935Z,1003.1
2017-02-04T13:23:19.384Z,1003
2017-02-04T13:24:22.170Z,1003
2017-02-04T13:25:24.620Z,1003
2017-02-04T13:26:27.069Z,1002.9
2017-02-04T13:27:30.021Z,1002.9
2017-02-04T13:28:32.362Z,1002.9
2017-02-04T13:29:35.312Z,1002.9
2017-02-04T13:30:37.761Z,1002.8
2017-02-04T13:31:40.217Z,1002.9
2017-02-04T13:32:42.664Z,1002.9
2017-02-04T13:33:45.615Z,1002.9
2017-02-04T13:34:48.061Z,1002.9
2017-02-04T13:35:50.509Z,1002.9
2017-02-04T13:36:53.458Z,1002.9
2017-02-04T13:37:55.902Z,1002.9
2017-02-04T13:38:58.686Z,1002.9
2017-02-04T13:41:03.537Z,1002.9
2017-02-04T13:42:06.487Z,1002.9
2017-02-04T13:43:08.939Z,1002.8
2017-02-04T13:44:11.389Z,1002.9
2017-02-04T13:45:13.837Z,1002.9